sensor_id;sensor_type;location;lat;lon;timestamp;P1;P2;P0
60058;PMS7003;45932;50.658;3.022;2022-07-01T00:00:32;4.00;2.33;2.00
60058;PMS7003;45932;50.658;3.022;2022-07-01T00:02:57;4.00;2.33;2.00
60058;PMS7003;45932;50.658;3.022;2022-07-01T00:05:22;3.67;3.00;2.67
60058;PMS7003;45932;50.658;3.022;2022-07-01T00:07:47;3.00;3.00;2.33
60058;PMS7003;45932;50.658;3.022;2022-07-01T00:10:13;2.00;2.00;1.67
60058;PMS7003;45932;50.658;3.022;2022-07-01T00:12:39;2.00;2.00;2.00
60058;PMS7003;45932;50.658;3.022;2022-07-01T00:15:04;4.00;4.00;3.00
60058;PMS7003;45932;50.658;3.022;2022-07-01T00:17:29;3.67;3.67;3.00
60058;PMS7003;45932;50.658;3.022;2022-07-01T00:19:55;3.00;3.00;2.33
60058;PMS7003;45932;50.658;3.022;2022-07-01T00:22:20;3.67;3.00;2.00
60058;PMS7003;45932;50.658;3.022;2022-07-01T00:24:46;6.00;3.00;2.33
60058;PMS7003;45932;50.658;3.022;2022-07-01T00:27:13;3.00;3.00;3.00
60058;PMS7003;45932;50.658;3.022;2022-07-01T00:29:38;6.00;4.00;2.00
60058;PMS7003;45932;50.658;3.022;2022-07-01T00:32:07;3.33;3.33;3.00
60058;PMS7003;45932;50.658;3.022;2022-07-01T00:34:32;4.00;4.00;3.00
60058;PMS7003;45932;50.658;3.022;2022-07-01T00:36:57;4.33;3.67;3.00
60058;PMS7003;45932;50.658;3.022;2022-07-01T00:39:23;3.33;3.33;3.00
60058;PMS7003;45932;50.658;3.022;2022-07-01T00:41:48;2.67;2.67;2.00
60058;PMS7003;45932;50.658;3.022;2022-07-01T00:44:19;3.00;3.00;2.33
60058;PMS7003;45932;50.658;3.022;2022-07-01T00:46:45;1.33;1.00;1.00
60058;PMS7003;45932;50.658;3.022;2022-07-01T00:49:10;6.33;3.67;2.67
60058;PMS7003;45932;50.658;3.022;2022-07-01T00:51:35;4.00;3.00;2.33
60058;PMS7003;45932;50.658;3.022;2022-07-01T00:54:01;3.00;3.00;2.33
60058;PMS7003;45932;50.658;3.022;2022-07-01T00:56:26;6.00;3.67;3.00
60058;PMS7003;45932;50.658;3.022;2022-07-01T00:58:51;2.33;2.33;2.00
60058;PMS7003;45932;50.658;3.022;2022-07-01T01:01:17;4.00;4.00;2.67
60058;PMS7003;45932;50.658;3.022;2022-07-01T01:03:43;5.33;4.00;3.00
60058;PMS7003;45932;50.658;3.022;2022-07-01T01:06:09;5.00;4.00;3.00
60058;PMS7003;45932;50.658;3.022;2022-07-01T01:08:34;3.33;3.33;3.00
60058;PMS7003;45932;50.658;3.022;2022-07-01T01:11:00;4.67;2.33;1.67
60058;PMS7003;45932;50.658;3.022;2022-07-01T01:13:25;6.00;4.00;2.67
60058;PMS7003;45932;50.658;3.022;2022-07-01T01:15:51;5.33;3.00;2.33
60058;PMS7003;45932;50.658;3.022;2022-07-01T01:18:16;4.67;4.00;3.33
60058;PMS7003;45932;50.658;3.022;2022-07-01T01:20:41;3.00;3.00;2.00
60058;PMS7003;45932;50.658;3.022;2022-07-01T01:23:06;6.33;5.00;4.00
60058;PMS7003;45932;50.658;3.022;2022-07-01T01:25:32;3.67;3.67;3.67
60058;PMS7003;45932;50.658;3.022;2022-07-01T01:27:58;5.00;3.00;2.00
60058;PMS7003;45932;50.658;3.022;2022-07-01T01:30:23;3.33;3.33;3.00
60058;PMS7003;45932;50.658;3.022;2022-07-01T01:32:49;3.00;2.00;2.00
60058;PMS7003;45932;50.658;3.022;2022-07-01T01:35:15;5.00;4.00;2.00
60058;PMS7003;45932;50.658;3.022;2022-07-01T01:37:40;5.33;5.33;3.33
60058;PMS7003;45932;50.658;3.022;2022-07-01T01:40:05;3.00;3.00;2.33
60058;PMS7003;45932;50.658;3.022;2022-07-01T01:42:31;3.67;3.67;3.00
60058;PMS7003;45932;50.658;3.022;2022-07-01T01:44:56;6.67;5.00;3.67
60058;PMS7003;45932;50.658;3.022;2022-07-01T01:47:22;4.00;4.00;3.00
60058;PMS7003;45932;50.658;3.022;2022-07-01T01:49:47;3.33;3.33;3.00
60058;PMS7003;45932;50.658;3.022;2022-07-01T01:52:12;4.67;3.67;3.00
60058;PMS7003;45932;50.658;3.022;2022-07-01T01:54:37;5.00;5.00;4.00
60058;PMS7003;45932;50.658;3.022;2022-07-01T01:57:03;4.00;4.00;3.00
60058;PMS7003;45932;50.658;3.022;2022-07-01T01:59:28;5.67;4.67;3.00
60058;PMS7003;45932;50.658;3.022;2022-07-01T02:01:53;3.67;3.67;3.00
60058;PMS7003;45932;50.658;3.022;2022-07-01T02:04:19;5.00;5.00;3.67
60058;PMS7003;45932;50.658;3.022;2022-07-01T02:06:44;4.00;3.67;3.00
60058;PMS7003;45932;50.658;3.022;2022-07-01T02:09:10;4.00;4.00;2.67
60058;PMS7003;45932;50.658;3.022;2022-07-01T02:11:35;3.00;3.00;2.00
60058;PMS7003;45932;50.658;3.022;2022-07-01T02:14:00;4.67;4.67;3.00
60058;PMS7003;45932;50.658;3.022;2022-07-01T02:16:25;4.00;2.00;1.33
60058;PMS7003;45932;50.658;3.022;2022-07-01T02:18:51;4.00;3.00;2.67
60058;PMS7003;45932;50.658;3.022;2022-07-01T02:21:17;4.00;3.00;2.33
60058;PMS7003;45932;50.658;3.022;2022-07-01T02:23:42;6.00;4.33;3.00
60058;PMS7003;45932;50.658;3.022;2022-07-01T02:26:07;3.00;3.00;2.67
60058;PMS7003;45932;50.658;3.022;2022-07-01T02:28:32;7.67;4.67;3.33
60058;PMS7003;45932;50.658;3.022;2022-07-01T02:30:58;3.33;3.33;2.33
60058;PMS7003;45932;50.658;3.022;2022-07-01T02:33:23;3.67;3.00;3.00
60058;PMS7003;45932;50.658;3.022;2022-07-01T02:35:49;5.00;4.67;3.33
60058;PMS7003;45932;50.658;3.022;2022-07-01T02:38:15;3.67;3.67;2.00
60058;PMS7003;45932;50.658;3.022;2022-07-01T02:40:40;2.33;2.33;2.00
60058;PMS7003;45932;50.658;3.022;2022-07-01T02:43:06;5.67;4.33;4.00
60058;PMS7003;45932;50.658;3.022;2022-07-01T02:45:32;4.00;3.67;2.00
60058;PMS7003;45932;50.658;3.022;2022-07-01T02:47:57;7.00;5.00;3.67
60058;PMS7003;45932;50.658;3.022;2022-07-01T02:50:23;3.00;3.00;2.00
60058;PMS7003;45932;50.658;3.022;2022-07-01T02:52:48;3.00;3.00;2.00
60058;PMS7003;45932;50.658;3.022;2022-07-01T02:55:13;3.00;3.00;2.00
60058;PMS7003;45932;50.658;3.022;2022-07-01T02:57:39;3.00;3.00;2.67
60058;PMS7003;45932;50.658;3.022;2022-07-01T03:00:05;3.00;3.00;2.00
60058;PMS7003;45932;50.658;3.022;2022-07-01T03:02:31;3.67;3.67;3.00
60058;PMS7003;45932;50.658;3.022;2022-07-01T03:04:56;3.00;3.00;2.00
60058;PMS7003;45932;50.658;3.022;2022-07-01T03:07:21;6.00;4.33;3.00
60058;PMS7003;45932;50.658;3.022;2022-07-01T03:09:47;5.00;2.00;2.00
60058;PMS7003;45932;50.658;3.022;2022-07-01T03:12:12;5.00;3.00;2.00
60058;PMS7003;45932;50.658;3.022;2022-07-01T03:17:18;3.00;3.00;2.00
60058;PMS7003;45932;50.658;3.022;2022-07-01T03:19:44;4.00;4.00;3.00
60058;PMS7003;45932;50.658;3.022;2022-07-01T03:22:09;2.00;2.00;1.00
60058;PMS7003;45932;50.658;3.022;2022-07-01T03:24:35;3.00;3.00;2.67
60058;PMS7003;45932;50.658;3.022;2022-07-01T03:27:00;5.33;3.67;3.00
60058;PMS7003;45932;50.658;3.022;2022-07-01T03:29:25;4.00;4.00;2.67
60058;PMS7003;45932;50.658;3.022;2022-07-01T03:31:50;6.67;4.00;3.00
60058;PMS7003;45932;50.658;3.022;2022-07-01T03:34:16;3.00;3.00;3.00
60058;PMS7003;45932;50.658;3.022;2022-07-01T03:36:41;2.33;2.33;2.00
60058;PMS7003;45932;50.658;3.022;2022-07-01T03:39:06;3.33;3.33;3.00
60058;PMS7003;45932;50.658;3.022;2022-07-01T03:41:31;2.00;2.00;2.00
60058;PMS7003;45932;50.658;3.022;2022-07-01T03:43:56;2.33;2.33;2.00
60058;PMS7003;45932;50.658;3.022;2022-07-01T03:46:21;5.67;4.00;3.00
60058;PMS7003;45932;50.658;3.022;2022-07-01T03:48:47;4.33;3.00;2.00
60058;PMS7003;45932;50.658;3.022;2022-07-01T03:51:12;2.33;2.33;2.33
60058;PMS7003;45932;50.658;3.022;2022-07-01T03:53:37;3.67;3.00;3.00
60058;PMS7003;45932;50.658;3.022;2022-07-01T03:56:21;8.00;3.00;2.33
60058;PMS7003;45932;50.658;3.022;2022-07-01T03:58:46;4.67;3.00;2.00
60058;PMS7003;45932;50.658;3.022;2022-07-01T04:01:12;4.00;4.00;3.00
60058;PMS7003;45932;50.658;3.022;2022-07-01T04:03:37;3.00;3.00;2.67
60058;PMS7003;45932;50.658;3.022;2022-07-01T04:06:02;3.33;2.67;2.00
60058;PMS7003;45932;50.658;3.022;2022-07-01T04:08:27;3.00;2.00;1.33
60058;PMS7003;45932;50.658;3.022;2022-07-01T04:10:53;2.00;2.00;2.00
60058;PMS7003;45932;50.658;3.022;2022-07-01T04:13:19;3.00;3.00;2.00
60058;PMS7003;45932;50.658;3.022;2022-07-01T04:15:45;3.00;3.00;2.00
60058;PMS7003;45932;50.658;3.022;2022-07-01T04:18:11;2.00;1.00;1.00
60058;PMS7003;45932;50.658;3.022;2022-07-01T04:20:36;3.00;3.00;1.33
60058;PMS7003;45932;50.658;3.022;2022-07-01T04:23:01;2.00;2.00;1.50
60058;PMS7003;45932;50.658;3.022;2022-07-01T04:25:26;5.67;5.33;3.00
60058;PMS7003;45932;50.658;3.022;2022-07-01T04:27:54;3.00;2.00;1.33
60058;PMS7003;45932;50.658;3.022;2022-07-01T04:30:20;2.00;2.00;1.67
60058;PMS7003;45932;50.658;3.022;2022-07-01T04:32:45;1.67;1.67;1.00
60058;PMS7003;45932;50.658;3.022;2022-07-01T04:35:10;2.00;2.00;1.00
60058;PMS7003;45932;50.658;3.022;2022-07-01T04:37:37;5.33;3.67;2.00
60058;PMS7003;45932;50.658;3.022;2022-07-01T04:40:03;2.00;2.00;1.33
60058;PMS7003;45932;50.658;3.022;2022-07-01T04:42:28;2.67;2.67;2.00
60058;PMS7003;45932;50.658;3.022;2022-07-01T04:44:54;1.00;1.00;1.00
60058;PMS7003;45932;50.658;3.022;2022-07-01T04:47:19;5.67;3.00;2.00
60058;PMS7003;45932;50.658;3.022;2022-07-01T04:49:46;2.00;2.00;2.00
60058;PMS7003;45932;50.658;3.022;2022-07-01T04:52:11;3.00;3.00;2.00
60058;PMS7003;45932;50.658;3.022;2022-07-01T04:54:36;1.33;1.33;1.33
60058;PMS7003;45932;50.658;3.022;2022-07-01T04:57:01;3.00;3.00;2.00
60058;PMS7003;45932;50.658;3.022;2022-07-01T04:59:27;2.33;2.00;1.00
60058;PMS7003;45932;50.658;3.022;2022-07-01T05:01:52;3.00;3.00;1.33
60058;PMS7003;45932;50.658;3.022;2022-07-01T05:04:18;5.00;3.00;2.00
60058;PMS7003;45932;50.658;3.022;2022-07-01T05:06:43;2.00;2.00;2.00
60058;PMS7003;45932;50.658;3.022;2022-07-01T05:09:09;2.00;2.00;1.67
60058;PMS7003;45932;50.658;3.022;2022-07-01T05:11:34;2.33;2.00;1.67
60058;PMS7003;45932;50.658;3.022;2022-07-01T05:13:59;3.00;2.00;1.33
60058;PMS7003;45932;50.658;3.022;2022-07-01T05:16:25;3.00;3.00;1.33
60058;PMS7003;45932;50.658;3.022;2022-07-01T05:18:50;1.33;1.00;1.00
60058;PMS7003;45932;50.658;3.022;2022-07-01T05:21:34;3.00;3.00;2.00
60058;PMS7003;45932;50.658;3.022;2022-07-01T05:24:18;2.00;2.00;1.00
60058;PMS7003;45932;50.658;3.022;2022-07-01T05:26:43;2.67;2.00;2.00
60058;PMS7003;45932;50.658;3.022;2022-07-01T05:29:08;2.00;2.00;1.00
60058;PMS7003;45932;50.658;3.022;2022-07-01T05:31:34;1.00;1.00;1.00
60058;PMS7003;45932;50.658;3.022;2022-07-01T05:33:59;2.67;1.00;1.00
60058;PMS7003;45932;50.658;3.022;2022-07-01T05:36:24;2.00;0.00;0.00
60058;PMS7003;45932;50.658;3.022;2022-07-01T05:38:49;3.00;2.00;1.00
60058;PMS7003;45932;50.658;3.022;2022-07-01T05:41:15;1.00;1.00;1.00
60058;PMS7003;45932;50.658;3.022;2022-07-01T05:43:41;2.33;1.33;1.00
60058;PMS7003;45932;50.658;3.022;2022-07-01T05:46:06;0.33;0.33;0.00
60058;PMS7003;45932;50.658;3.022;2022-07-01T05:48:31;0.33;0.33;0.33
60058;PMS7003;45932;50.658;3.022;2022-07-01T05:50:57;1.00;1.00;1.00
60058;PMS7003;45932;50.658;3.022;2022-07-01T05:53:22;1.00;1.00;1.00
60058;PMS7003;45932;50.658;3.022;2022-07-01T05:55:47;2.00;1.00;0.67
60058;PMS7003;45932;50.658;3.022;2022-07-01T05:58:13;2.00;1.00;1.00
60058;PMS7003;45932;50.658;3.022;2022-07-01T06:00:38;3.00;1.33;0.00
60058;PMS7003;45932;50.658;3.022;2022-07-01T06:03:06;2.00;1.00;1.00
60058;PMS7003;45932;50.658;3.022;2022-07-01T06:05:31;2.00;1.00;1.00
60058;PMS7003;45932;50.658;3.022;2022-07-01T06:07:56;1.67;1.67;1.00
60058;PMS7003;45932;50.658;3.022;2022-07-01T06:10:22;0.00;0.00;0.00
60058;PMS7003;45932;50.658;3.022;2022-07-01T06:12:47;1.00;1.00;0.00
60058;PMS7003;45932;50.658;3.022;2022-07-01T06:15:12;1.00;1.00;1.00
60058;PMS7003;45932;50.658;3.022;2022-07-01T06:17:38;3.00;1.00;1.00
60058;PMS7003;45932;50.658;3.022;2022-07-01T06:20:05;4.00;4.00;3.00
60058;PMS7003;45932;50.658;3.022;2022-07-01T06:22:30;1.00;1.00;1.00
60058;PMS7003;45932;50.658;3.022;2022-07-01T06:24:56;3.00;2.00;1.00
60058;PMS7003;45932;50.658;3.022;2022-07-01T06:27:21;2.33;1.00;1.00
60058;PMS7003;45932;50.658;3.022;2022-07-01T06:29:46;1.33;1.00;1.00
60058;PMS7003;45932;50.658;3.022;2022-07-01T06:32:11;3.00;1.67;1.00
60058;PMS7003;45932;50.658;3.022;2022-07-01T06:37:39;2.00;1.00;0.33
60058;PMS7003;45932;50.658;3.022;2022-07-01T06:42:55;2.67;1.33;1.00
60058;PMS7003;45932;50.658;3.022;2022-07-01T06:45:20;1.00;1.00;0.33
60058;PMS7003;45932;50.658;3.022;2022-07-01T06:47:45;2.33;1.00;1.00
60058;PMS7003;45932;50.658;3.022;2022-07-01T06:50:11;1.00;1.00;1.00
60058;PMS7003;45932;50.658;3.022;2022-07-01T06:52:36;2.33;1.00;1.00
60058;PMS7003;45932;50.658;3.022;2022-07-01T06:55:02;0.00;0.00;0.00
60058;PMS7003;45932;50.658;3.022;2022-07-01T06:57:27;0.67;0.67;0.33
60058;PMS7003;45932;50.658;3.022;2022-07-01T06:59:53;2.33;1.00;0.00
60058;PMS7003;45932;50.658;3.022;2022-07-01T07:02:18;1.00;1.00;0.33
60058;PMS7003;45932;50.658;3.022;2022-07-01T07:04:43;1.67;1.00;0.67
60058;PMS7003;45932;50.658;3.022;2022-07-01T07:07:08;0.67;0.67;0.00
60058;PMS7003;45932;50.658;3.022;2022-07-01T07:09:34;2.00;1.00;0.00
60058;PMS7003;45932;50.658;3.022;2022-07-01T07:11:59;1.00;0.00;0.00
60058;PMS7003;45932;50.658;3.022;2022-07-01T07:14:24;1.00;1.00;1.00
60058;PMS7003;45932;50.658;3.022;2022-07-01T07:16:49;1.00;1.00;1.00
60058;PMS7003;45932;50.658;3.022;2022-07-01T07:19:16;2.00;1.67;0.67
60058;PMS7003;45932;50.658;3.022;2022-07-01T07:21:43;0.33;0.33;0.33
60058;PMS7003;45932;50.658;3.022;2022-07-01T07:26:59;0.33;0.33;0.33
60058;PMS7003;45932;50.658;3.022;2022-07-01T07:29:24;1.33;1.33;0.00
60058;PMS7003;45932;50.658;3.022;2022-07-01T07:31:49;0.33;0.33;0.00
60058;PMS7003;45932;50.658;3.022;2022-07-01T07:34:14;1.00;1.00;0.00
60058;PMS7003;45932;50.658;3.022;2022-07-01T07:36:40;1.33;1.33;1.00
60058;PMS7003;45932;50.658;3.022;2022-07-01T07:39:05;0.33;0.33;0.00
60058;PMS7003;45932;50.658;3.022;2022-07-01T07:41:30;2.00;2.00;0.00
60058;PMS7003;45932;50.658;3.022;2022-07-01T07:43:55;1.00;1.00;0.00
60058;PMS7003;45932;50.658;3.022;2022-07-01T07:49:24;2.00;0.67;0.67
60058;PMS7003;45932;50.658;3.022;2022-07-01T07:51:49;1.67;1.67;0.00
60058;PMS7003;45932;50.658;3.022;2022-07-01T07:54:15;2.67;1.00;0.00
60058;PMS7003;45932;50.658;3.022;2022-07-01T07:56:40;2.00;1.67;0.67
60058;PMS7003;45932;50.658;3.022;2022-07-01T07:59:05;0.33;0.33;0.00
60058;PMS7003;45932;50.658;3.022;2022-07-01T08:04:36;0.67;0.67;0.67
60058;PMS7003;45932;50.658;3.022;2022-07-01T08:07:02;1.00;1.00;1.00
60058;PMS7003;45932;50.658;3.022;2022-07-01T08:09:27;2.00;2.00;0.67
60058;PMS7003;45932;50.658;3.022;2022-07-01T08:11:52;2.00;2.00;1.00
60058;PMS7003;45932;50.658;3.022;2022-07-01T08:14:18;0.33;0.33;0.00
60058;PMS7003;45932;50.658;3.022;2022-07-01T08:16:43;1.00;1.00;1.00
60058;PMS7003;45932;50.658;3.022;2022-07-01T08:19:08;0.00;0.00;0.00
60058;PMS7003;45932;50.658;3.022;2022-07-01T08:21:34;3.00;2.00;1.00
60058;PMS7003;45932;50.658;3.022;2022-07-01T08:23:59;1.00;1.00;1.00
60058;PMS7003;45932;50.658;3.022;2022-07-01T08:26:25;2.33;2.33;1.00
60058;PMS7003;45932;50.658;3.022;2022-07-01T08:28:50;1.00;1.00;0.33
60058;PMS7003;45932;50.658;3.022;2022-07-01T08:31:15;1.00;1.00;1.00
60058;PMS7003;45932;50.658;3.022;2022-07-01T08:33:41;0.00;0.00;0.00
60058;PMS7003;45932;50.658;3.022;2022-07-01T08:36:06;1.00;1.00;1.00
60058;PMS7003;45932;50.658;3.022;2022-07-01T08:38:32;1.00;1.00;0.33
60058;PMS7003;45932;50.658;3.022;2022-07-01T08:40:57;2.00;1.33;1.00
60058;PMS7003;45932;50.658;3.022;2022-07-01T08:43:23;1.33;1.00;1.00
60058;PMS7003;45932;50.658;3.022;2022-07-01T08:45:48;3.00;2.00;1.00
60058;PMS7003;45932;50.658;3.022;2022-07-01T08:48:15;1.00;1.00;1.00
60058;PMS7003;45932;50.658;3.022;2022-07-01T08:50:40;2.33;1.00;1.00
60058;PMS7003;45932;50.658;3.022;2022-07-01T08:53:06;1.00;1.00;0.33
60058;PMS7003;45932;50.658;3.022;2022-07-01T08:55:32;0.00;0.00;0.00
60058;PMS7003;45932;50.658;3.022;2022-07-01T08:57:57;0.67;0.00;0.00
60058;PMS7003;45932;50.658;3.022;2022-07-01T09:00:28;1.00;1.00;1.00
60058;PMS7003;45932;50.658;3.022;2022-07-01T09:03:01;3.00;0.00;0.00
60058;PMS7003;45932;50.658;3.022;2022-07-01T09:05:27;1.00;1.00;1.00
60058;PMS7003;45932;50.658;3.022;2022-07-01T09:08:01;1.00;1.00;0.00
60058;PMS7003;45932;50.658;3.022;2022-07-01T09:10:27;1.00;1.00;1.00
60058;PMS7003;45932;50.658;3.022;2022-07-01T09:12:55;1.33;0.00;0.00
60058;PMS7003;45932;50.658;3.022;2022-07-01T09:15:21;1.00;1.00;1.00
60058;PMS7003;45932;50.658;3.022;2022-07-01T09:17:49;2.67;1.33;0.67
60058;PMS7003;45932;50.658;3.022;2022-07-01T09:20:27;2.67;2.00;2.00
60058;PMS7003;45932;50.658;3.022;2022-07-01T09:22:59;1.00;1.00;0.33
60058;PMS7003;45932;50.658;3.022;2022-07-01T09:25:27;1.67;1.00;0.67
60058;PMS7003;45932;50.658;3.022;2022-07-01T09:28:06;1.00;1.00;0.67
60058;PMS7003;45932;50.658;3.022;2022-07-01T09:30:32;1.00;1.00;0.00
60058;PMS7003;45932;50.658;3.022;2022-07-01T09:33:11;1.00;1.00;0.67
60058;PMS7003;45932;50.658;3.022;2022-07-01T09:35:36;2.00;1.00;0.67
60058;PMS7003;45932;50.658;3.022;2022-07-01T09:38:03;0.00;0.00;0.00
60058;PMS7003;45932;50.658;3.022;2022-07-01T09:40:44;0.00;0.00;0.00
60058;PMS7003;45932;50.658;3.022;2022-07-01T09:43:13;0.00;0.00;0.00
60058;PMS7003;45932;50.658;3.022;2022-07-01T09:45:42;1.00;1.00;1.00
60058;PMS7003;45932;50.658;3.022;2022-07-01T09:48:13;1.00;1.00;1.00
60058;PMS7003;45932;50.658;3.022;2022-07-01T09:50:38;1.00;1.00;0.67
60058;PMS7003;45932;50.658;3.022;2022-07-01T09:53:03;1.00;1.00;1.00
60058;PMS7003;45932;50.658;3.022;2022-07-01T09:55:29;3.00;1.00;1.00
60058;PMS7003;45932;50.658;3.022;2022-07-01T09:57:55;1.00;1.00;0.67
60058;PMS7003;45932;50.658;3.022;2022-07-01T10:00:20;1.00;1.00;1.00
60058;PMS7003;45932;50.658;3.022;2022-07-01T10:02:45;1.00;1.00;0.00
60058;PMS7003;45932;50.658;3.022;2022-07-01T10:05:14;1.00;1.00;0.33
60058;PMS7003;45932;50.658;3.022;2022-07-01T10:10:17;2.00;2.00;1.00
60058;PMS7003;45932;50.658;3.022;2022-07-01T10:18:54;0.67;0.67;0.00
60058;PMS7003;45932;50.658;3.022;2022-07-01T10:21:26;1.00;0.33;0.00
60058;PMS7003;45932;50.658;3.022;2022-07-01T10:23:52;1.00;1.00;1.00
60058;PMS7003;45932;50.658;3.022;2022-07-01T10:26:18;1.00;1.00;0.00
60058;PMS7003;45932;50.658;3.022;2022-07-01T10:28:44;0.00;0.00;0.00
60058;PMS7003;45932;50.658;3.022;2022-07-01T10:31:15;1.50;0.00;0.00
60058;PMS7003;45932;50.658;3.022;2022-07-01T10:36:16;2.00;1.00;1.00
60058;PMS7003;45932;50.658;3.022;2022-07-01T10:41:33;1.00;1.00;1.00
60058;PMS7003;45932;50.658;3.022;2022-07-01T10:44:01;1.00;1.00;0.00
60058;PMS7003;45932;50.658;3.022;2022-07-01T10:49:12;0.00;0.00;0.00
60058;PMS7003;45932;50.658;3.022;2022-07-01T10:51:41;3.00;0.00;0.00
60058;PMS7003;45932;50.658;3.022;2022-07-01T10:54:07;0.00;0.00;0.00
60058;PMS7003;45932;50.658;3.022;2022-07-01T10:56:44;0.00;0.00;0.00
60058;PMS7003;45932;50.658;3.022;2022-07-01T10:59:17;1.00;1.00;0.00
60058;PMS7003;45932;50.658;3.022;2022-07-01T11:01:42;1.00;1.00;1.00
60058;PMS7003;45932;50.658;3.022;2022-07-01T11:04:08;1.67;1.67;1.67
60058;PMS7003;45932;50.658;3.022;2022-07-01T11:06:33;2.00;1.00;1.00
60058;PMS7003;45932;50.658;3.022;2022-07-01T11:09:03;1.00;1.00;0.00
60058;PMS7003;45932;50.658;3.022;2022-07-01T11:11:29;3.00;1.00;1.00
60058;PMS7003;45932;50.658;3.022;2022-07-01T11:13:56;1.00;1.00;1.00
60058;PMS7003;45932;50.658;3.022;2022-07-01T11:16:21;1.00;1.00;1.00
60058;PMS7003;45932;50.658;3.022;2022-07-01T11:18:46;1.00;1.00;1.00
60058;PMS7003;45932;50.658;3.022;2022-07-01T11:21:12;2.00;2.00;1.00
60058;PMS7003;45932;50.658;3.022;2022-07-01T11:23:37;1.00;1.00;1.00
60058;PMS7003;45932;50.658;3.022;2022-07-01T11:26:02;1.00;1.00;1.00
60058;PMS7003;45932;50.658;3.022;2022-07-01T11:28:27;1.00;1.00;1.00
60058;PMS7003;45932;50.658;3.022;2022-07-01T11:31:00;2.00;2.00;1.33
60058;PMS7003;45932;50.658;3.022;2022-07-01T11:33:25;1.67;1.67;1.00
60058;PMS7003;45932;50.658;3.022;2022-07-01T11:35:51;3.00;2.00;1.00
60058;PMS7003;45932;50.658;3.022;2022-07-01T11:38:34;2.00;2.00;2.00
60058;PMS7003;45932;50.658;3.022;2022-07-01T11:41:20;1.00;1.00;1.00
60058;PMS7003;45932;50.658;3.022;2022-07-01T11:43:45;1.67;1.00;1.00
60058;PMS7003;45932;50.658;3.022;2022-07-01T11:46:11;0.67;0.67;0.67
60058;PMS7003;45932;50.658;3.022;2022-07-01T11:48:40;1.33;1.00;1.00
60058;PMS7003;45932;50.658;3.022;2022-07-01T11:51:10;1.33;1.33;1.00
60058;PMS7003;45932;50.658;3.022;2022-07-01T11:53:36;1.00;1.00;1.00
60058;PMS7003;45932;50.658;3.022;2022-07-01T11:56:02;0.00;0.00;0.00
60058;PMS7003;45932;50.658;3.022;2022-07-01T12:01:19;1.00;1.00;1.00
60058;PMS7003;45932;50.658;3.022;2022-07-01T12:03:44;1.00;1.00;1.00
60058;PMS7003;45932;50.658;3.022;2022-07-01T12:06:09;0.33;0.33;0.33
60058;PMS7003;45932;50.658;3.022;2022-07-01T12:08:35;1.00;1.00;1.00
60058;PMS7003;45932;50.658;3.022;2022-07-01T12:11:00;0.00;0.00;0.00
60058;PMS7003;45932;50.658;3.022;2022-07-01T12:13:26;1.00;1.00;1.00
60058;PMS7003;45932;50.658;3.022;2022-07-01T12:15:52;1.00;1.00;1.00
60058;PMS7003;45932;50.658;3.022;2022-07-01T12:18:19;0.00;0.00;0.00
60058;PMS7003;45932;50.658;3.022;2022-07-01T12:21:03;0.00;0.00;0.00
60058;PMS7003;45932;50.658;3.022;2022-07-01T12:23:28;0.25;0.25;0.00
60058;PMS7003;45932;50.658;3.022;2022-07-01T12:25:54;1.00;1.00;0.00
60058;PMS7003;45932;50.658;3.022;2022-07-01T12:28:24;3.00;1.00;1.00
60058;PMS7003;45932;50.658;3.022;2022-07-01T12:30:58;2.00;0.00;0.00
60058;PMS7003;45932;50.658;3.022;2022-07-01T12:33:23;0.33;0.00;0.00
60058;PMS7003;45932;50.658;3.022;2022-07-01T12:38:29;1.00;1.00;0.00
60058;PMS7003;45932;50.658;3.022;2022-07-01T12:40:55;0.00;0.00;0.00
60058;PMS7003;45932;50.658;3.022;2022-07-01T12:43:27;1.00;1.00;1.00
60058;PMS7003;45932;50.658;3.022;2022-07-01T12:45:55;1.33;0.67;0.00
60058;PMS7003;45932;50.658;3.022;2022-07-01T12:48:20;1.00;1.00;0.67
60058;PMS7003;45932;50.658;3.022;2022-07-01T12:50:45;0.33;0.33;0.33
60058;PMS7003;45932;50.658;3.022;2022-07-01T12:53:21;2.00;0.00;0.00
60058;PMS7003;45932;50.658;3.022;2022-07-01T12:55:51;0.00;0.00;0.00
60058;PMS7003;45932;50.658;3.022;2022-07-01T12:58:26;1.00;1.00;1.00
60058;PMS7003;45932;50.658;3.022;2022-07-01T13:00:53;0.67;0.67;0.67
60058;PMS7003;45932;50.658;3.022;2022-07-01T13:03:20;2.67;1.00;1.00
60058;PMS7003;45932;50.658;3.022;2022-07-01T13:05:45;0.00;0.00;0.00
60058;PMS7003;45932;50.658;3.022;2022-07-01T13:08:10;1.00;1.00;0.00
60058;PMS7003;45932;50.658;3.022;2022-07-01T13:10:36;0.00;0.00;0.00
60058;PMS7003;45932;50.658;3.022;2022-07-01T13:13:01;0.67;0.67;0.00
60058;PMS7003;45932;50.658;3.022;2022-07-01T13:15:27;5.33;4.33;3.33
60058;PMS7003;45932;50.658;3.022;2022-07-01T13:17:52;1.00;1.00;0.00
60058;PMS7003;45932;50.658;3.022;2022-07-01T13:20:18;7.33;7.33;6.00
60058;PMS7003;45932;50.658;3.022;2022-07-01T13:22:43;3.00;1.00;0.67
60058;PMS7003;45932;50.658;3.022;2022-07-01T13:25:09;0.00;0.00;0.00
60058;PMS7003;45932;50.658;3.022;2022-07-01T13:27:36;1.00;1.00;1.00
60058;PMS7003;45932;50.658;3.022;2022-07-01T13:30:02;1.00;1.00;1.00
60058;PMS7003;45932;50.658;3.022;2022-07-01T13:32:28;1.33;1.33;1.00
60058;PMS7003;45932;50.658;3.022;2022-07-01T13:35:10;1.00;1.00;1.00
60058;PMS7003;45932;50.658;3.022;2022-07-01T13:38:05;1.00;1.00;1.00
60058;PMS7003;45932;50.658;3.022;2022-07-01T13:40:33;0.33;0.33;0.00
60058;PMS7003;45932;50.658;3.022;2022-07-01T13:42:58;1.00;1.00;1.00
60058;PMS7003;45932;50.658;3.022;2022-07-01T13:45:23;1.00;1.00;1.00
60058;PMS7003;45932;50.658;3.022;2022-07-01T13:47:49;1.00;1.00;0.67
60058;PMS7003;45932;50.658;3.022;2022-07-01T13:50:14;1.00;1.00;0.67
60058;PMS7003;45932;50.658;3.022;2022-07-01T13:52:43;3.00;1.67;1.00
60058;PMS7003;45932;50.658;3.022;2022-07-01T13:57:39;1.67;0.00;0.00
60058;PMS7003;45932;50.658;3.022;2022-07-01T14:00:04;0.33;0.33;0.00
60058;PMS7003;45932;50.658;3.022;2022-07-01T14:02:30;1.33;1.00;0.00
60058;PMS7003;45932;50.658;3.022;2022-07-01T14:04:57;1.00;1.00;1.00
60058;PMS7003;45932;50.658;3.022;2022-07-01T14:07:22;0.67;0.67;0.67
60058;PMS7003;45932;50.658;3.022;2022-07-01T14:09:47;0.00;0.00;0.00
60058;PMS7003;45932;50.658;3.022;2022-07-01T14:12:12;0.00;0.00;0.00
60058;PMS7003;45932;50.658;3.022;2022-07-01T14:14:40;0.00;0.00;0.00
60058;PMS7003;45932;50.658;3.022;2022-07-01T14:17:05;2.67;1.00;1.00
60058;PMS7003;45932;50.658;3.022;2022-07-01T14:19:30;0.67;0.67;0.00
60058;PMS7003;45932;50.658;3.022;2022-07-01T14:21:55;0.00;0.00;0.00
60058;PMS7003;45932;50.658;3.022;2022-07-01T14:24:21;0.00;0.00;0.00
60058;PMS7003;45932;50.658;3.022;2022-07-01T14:26:46;1.00;1.00;0.00
60058;PMS7003;45932;50.658;3.022;2022-07-01T14:29:12;0.00;0.00;0.00
60058;PMS7003;45932;50.658;3.022;2022-07-01T14:31:37;1.00;1.00;0.00
60058;PMS7003;45932;50.658;3.022;2022-07-01T14:34:02;0.00;0.00;0.00
60058;PMS7003;45932;50.658;3.022;2022-07-01T14:36:27;0.67;0.67;0.67
60058;PMS7003;45932;50.658;3.022;2022-07-01T14:38:53;1.00;1.00;0.00
60058;PMS7003;45932;50.658;3.022;2022-07-01T14:41:18;0.00;0.00;0.00
60058;PMS7003;45932;50.658;3.022;2022-07-01T14:43:43;0.00;0.00;0.00
60058;PMS7003;45932;50.658;3.022;2022-07-01T14:46:09;0.00;0.00;0.00
60058;PMS7003;45932;50.658;3.022;2022-07-01T14:48:36;1.00;1.00;1.00
60058;PMS7003;45932;50.658;3.022;2022-07-01T14:51:03;1.00;1.00;0.00
60058;PMS7003;45932;50.658;3.022;2022-07-01T14:53:28;1.00;1.00;0.00
60058;PMS7003;45932;50.658;3.022;2022-07-01T14:55:54;0.00;0.00;0.00
60058;PMS7003;45932;50.658;3.022;2022-07-01T14:58:19;2.67;1.00;1.00
60058;PMS7003;45932;50.658;3.022;2022-07-01T15:00:45;0.67;0.67;0.67